Time;durP1;ratioP1;P1;durP2;ratioP2;P2;SDS_P1;SDS_P2;PMS_P1;PMS_P2;Temp;Humidity;BMP_temperature;BMP_pressure;BME280_temperature;BME280_humidity;BME280_pressure;Samples;Min_cycle;Max_cycle;Signal;HPM_P1;HPM_P2
2022/12/22 03:28:02;;;;;;;;;;;9.90;92.60;;;;;;4996735;28;19920;-83
2022/12/22 03:30:27;;;;;;;;;;;9.90;92.50;;;;;;4996987;28;20299;-82
2022/12/22 03:32:53;;;;;;;;;;;9.90;92.60;;;;;;4994663;28;19914;-83
2022/12/22 03:35:18;;;;;;;;;;;10.00;92.60;;;;;;4993751;28;19914;-83
2022/12/22 03:37:44;;;;;;;;;;;9.90;92.50;;;;;;5010288;28;20367;-83
2022/12/22 03:40:09;;;;;;;;;;;9.90;92.50;;;;;;5002549;28;20012;-83
2022/12/22 03:48:14;;;;;;;;;;;10.00;92.40;;;;;;5012149;28;19932;-82
2022/12/22 03:50:39;;;;;;;;;;;10.00;92.30;;;;;;4997031;28;19922;-83
2022/12/22 03:53:05;;;;;;;;;;;10.00;92.20;;;;;;5005629;28;19918;-83
2022/12/22 03:55:30;;;;;;;;;;;10.00;92.10;;;;;;5002455;28;19985;-83
2022/12/22 03:57:56;;;;;;;;;;;10.00;92.10;;;;;;5000836;28;19918;-82
2022/12/22 04:00:21;;;;;;;;;;;10.10;92.20;;;;;;5006818;28;20334;-83
2022/12/22 04:02:47;;;;;;;;;;;10.10;92.20;;;;;;4999258;28;20311;-82
2022/12/22 04:05:12;;;;;;;;;;;10.10;92.10;;;;;;4997358;28;19921;-82
2022/12/22 04:07:40;;;;;;;;;;;10.10;92.10;;;;;;4998716;28;19913;-83
2022/12/22 04:12:53;;;;;;;;;;;10.10;92.00;;;;;;5004514;28;19920;-83
2022/12/22 04:15:26;;;;;;;;;;;10.20;91.90;;;;;;4998974;28;19918;-83
2022/12/22 04:17:52;;;;;;;;;;;10.20;91.90;;;;;;4995383;28;19922;-82
2022/12/22 04:20:18;;;;;;;;;;;10.10;91.80;;;;;;5000610;28;20349;-83
2022/12/22 04:22:43;;;;;;;;;;;10.10;92.00;;;;;;4992710;28;19917;-82
2022/12/22 04:25:09;;;;;;;;;;;10.10;92.00;;;;;;5002303;28;20388;-83
2022/12/22 04:27:35;;;;;;;;;;;10.20;91.90;;;;;;4996664;28;20201;-82
2022/12/22 04:30:00;;;;;;;;;;;10.20;91.80;;;;;;4994259;28;19913;-83
2022/12/22 04:32:26;;;;;;;;;;;10.20;91.80;;;;;;4994526;28;19922;-83
2022/12/22 04:34:51;;;;;;;;;;;10.10;91.80;;;;;;4991775;28;19921;-83
2022/12/22 04:37:17;;;;;;;;;;;10.10;92.00;;;;;;4996640;28;19921;-83
2022/12/22 04:39:42;;;;;;;;;;;10.20;92.20;;;;;;5000389;28;19922;-83
2022/12/22 04:42:08;;;;;;;;;;;10.10;92.10;;;;;;5005898;28;20284;-83
2022/12/22 04:44:33;;;;;;;;;;;10.20;92.10;;;;;;4996943;28;19925;-83
2022/12/22 04:46:59;;;;;;;;;;;10.10;92.10;;;;;;5000428;28;20295;-83
2022/12/22 04:49:27;;;;;;;;;;;10.10;92.10;;;;;;5000602;28;19926;-82
2022/12/22 04:51:52;;;;;;;;;;;10.10;92.30;;;;;;5001329;28;19918;-83
2022/12/22 04:54:20;;;;;;;;;;;10.10;92.30;;;;;;4997271;28;19969;-83
2022/12/22 04:56:46;;;;;;;;;;;10.10;92.30;;;;;;5004151;28;19965;-84
2022/12/22 04:59:11;;;;;;;;;;;10.10;92.20;;;;;;4995329;28;21425;-84
2022/12/22 05:01:40;;;;;;;;;;;10.10;92.30;;;;;;5001754;28;19920;-83
2022/12/22 05:04:14;;;;;;;;;;;10.10;92.40;;;;;;5004483;28;20479;-83
2022/12/22 05:06:40;;;;;;;;;;;10.20;92.40;;;;;;5000340;28;19918;-84
2022/12/22 05:09:21;;;;;;;;;;;10.10;92.40;;;;;;4993637;28;19991;-82
2022/12/22 05:11:47;;;;;;;;;;;10.10;92.50;;;;;;4994025;28;20043;-83
2022/12/22 05:14:15;;;;;;;;;;;10.20;92.40;;;;;;4994102;28;19979;-83
2022/12/22 05:16:43;;;;;;;;;;;10.10;92.50;;;;;;5001343;28;19924;-83
2022/12/22 05:19:19;;;;;;;;;;;10.20;92.50;;;;;;5005106;28;19917;-83
2022/12/22 05:21:45;;;;;;;;;;;10.20;92.60;;;;;;5006049;28;19914;-83
2022/12/22 05:24:10;;;;;;;;;;;10.10;92.50;;;;;;4999374;28;20009;-83
2022/12/22 05:26:36;;;;;;;;;;;10.00;92.50;;;;;;5002231;28;20375;-82
2022/12/22 05:29:28;;;;;;;;;;;;;;;;;;;;;
2022/12/22 05:31:53;;;;;;;;;;;10.10;92.60;;;;;;4998266;28;19914;-84
2022/12/22 05:34:19;;;;;;;;;;;10.10;92.60;;;;;;4994275;28;20017;-83
2022/12/22 05:36:44;;;;;;;;;;;10.10;92.60;;;;;;4996957;28;19913;-83
2022/12/22 05:39:20;;;;;;;;;;;10.20;92.60;;;;;;4992965;28;19918;-83
2022/12/22 05:41:49;;;;;;;;;;;10.20;92.50;;;;;;4999088;28;19917;-82
2022/12/22 05:44:19;;;;;;;;;;;10.20;92.40;;;;;;4992159;28;19972;-83
2022/12/22 05:46:51;;;;;;;;;;;10.20;92.40;;;;;;5013973;28;19920;-84
2022/12/22 05:52:17;;;;;;;;;;;10.20;92.30;;;;;;5007092;28;20400;-84
2022/12/22 05:54:53;;;;;;;;;;;10.10;92.40;;;;;;5004174;28;19918;-83
2022/12/22 05:57:24;;;;;;;;;;;10.20;92.50;;;;;;5009573;28;19918;-84
2022/12/22 05:59:49;;;;;;;;;;;10.20;92.40;;;;;;4994946;28;19929;-84
2022/12/22 06:02:28;;;;;;;;;;;10.20;92.50;;;;;;4994498;28;19918;-83
2022/12/22 06:05:23;;;;;;;;;;;10.20;92.50;;;;;;4996586;28;19913;-83
2022/12/22 06:10:46;;;;;;;;;;;10.20;92.50;;;;;;4996511;28;19917;-83
2022/12/22 06:13:27;;;;;;;;;;;10.20;92.50;;;;;;5002513;28;19921;-84
2022/12/22 06:15:52;;;;;;;;;;;10.20;92.60;;;;;;5004689;28;19921;-84
2022/12/22 06:18:23;;;;;;;;;;;10.20;92.50;;;;;;4999202;28;19918;-84
2022/12/22 06:24:05;;;;;;;;;;;10.20;92.60;;;;;;5010684;28;20019;-83
2022/12/22 06:26:58;;;;;;;;;;;10.10;92.50;;;;;;5001596;28;19913;-83
2022/12/22 06:29:43;;;;;;;;;;;10.20;92.60;;;;;;4997189;28;20017;-83
2022/12/22 06:32:32;;;;;;;;;;;10.20;92.60;;;;;;4996858;28;19953;-83
2022/12/22 06:35:06;;;;;;;;;;;10.20;92.60;;;;;;4999848;28;19918;-83
2022/12/22 06:37:45;;;;;;;;;;;10.20;92.50;;;;;;5013427;28;19914;-83
2022/12/22 06:40:24;;;;;;;;;;;10.20;92.50;;;;;;5007687;28;19972;-83
2022/12/22 06:43:10;;;;;;;;;;;10.20;92.50;;;;;;5002618;28;19905;-83
2022/12/22 06:45:39;;;;;;;;;;;10.20;92.50;;;;;;5013921;28;19953;-84
2022/12/22 06:48:12;;;;;;;;;;;10.20;92.50;;;;;;5000616;28;19929;-83
2022/12/22 06:50:38;;;;;;;;;;;10.30;92.60;;;;;;5001217;28;19914;-84
2022/12/22 06:53:04;;;;;;;;;;;10.40;92.60;;;;;;4998387;28;19921;-84
2022/12/22 06:55:59;;;;;;;;;;;10.30;92.40;;;;;;5013731;28;19921;-83
2022/12/22 06:58:30;;;;;;;;;;;10.40;92.50;;;;;;5014827;28;19922;-82
2022/12/22 07:00:57;;;;;;;;;;;10.30;92.50;;;;;;4998258;28;19922;-84
2022/12/22 07:03:40;;;;;;;;;;;10.40;92.60;;;;;;4995093;28;19946;-85
2022/12/22 07:06:10;;;;;;;;;;;10.50;92.40;;;;;;4993166;28;19928;-82
2022/12/22 07:08:55;;;;;;;;;;;10.40;92.20;;;;;;5013991;28;19921;-84
2022/12/22 07:11:40;;;;;;;;;;;;;;;;;;;;;
2022/12/22 07:14:06;;;;;;;;;;;10.30;92.50;;;;;;4996432;28;19913;-82
2022/12/22 07:16:36;;;;;;;;;;;10.30;92.60;;;;;;4998452;28;19956;-84
2022/12/22 07:19:04;;;;;;;;;;;10.40;92.50;;;;;;4998531;28;19914;-84
2022/12/22 07:21:58;;;;;;;;;;;;;;;;;;;;;
2022/12/22 07:24:37;;;;;;;;;;;10.40;92.60;;;;;;4997251;28;19914;-84
2022/12/22 07:27:02;;;;;;;;;;;10.50;92.70;;;;;;4995664;28;20008;-86
2022/12/22 07:29:31;;;;;;;;;;;10.50;92.40;;;;;;4995359;28;20004;-84
2022/12/22 07:31:56;;;;;;;;;;;10.50;92.30;;;;;;5000563;28;20441;-82
2022/12/22 07:34:21;;;;;;;;;;;10.50;92.40;;;;;;5010742;28;19901;-84
2022/12/22 07:36:47;;;;;;;;;;;10.50;92.40;;;;;;4993178;28;19919;-84
2022/12/22 07:44:34;;;;;;;;;;;10.50;92.40;;;;;;4974278;28;20292;-87
2022/12/22 07:47:15;;;;;;;;;;;10.50;92.30;;;;;;4981575;28;19914;-88
2022/12/22 07:52:33;;;;;;;;;;;10.50;92.30;;;;;;4974007;28;20050;-88
2022/12/22 07:55:01;;;;;;;;;;;10.60;92.40;;;;;;4987398;28;20062;-84
2022/12/22 08:10:32;;;;;;;;;;;10.50;92.40;;;;;;5002684;28;19952;-90
2022/12/22 08:16:21;;;;;;;;;;;10.50;92.40;;;;;;4997337;28;19917;-90
2022/12/22 08:18:48;;;;;;;;;;;10.50;92.30;;;;;;4979271;28;20443;-87
2022/12/22 08:21:14;;;;;;;;;;;10.50;92.00;;;;;;4969734;28;19926;-87
2022/12/22 08:23:39;;;;;;;;;;;10.40;92.20;;;;;;4981184;28;19968;-88
2022/12/22 08:26:13;;;;;;;;;;;10.40;92.60;;;;;;4987669;28;19922;-88
2022/12/22 08:28:48;;;;;;;;;;;10.40;92.40;;;;;;4969440;28;19918;-87
2022/12/22 08:31:14;;;;;;;;;;;10.40;92.70;;;;;;4967956;28;19929;-87
2022/12/22 08:33:40;;;;;;;;;;;10.40;92.70;;;;;;4987497;28;19965;-87
2022/12/22 08:36:06;;;;;;;;;;;10.50;92.70;;;;;;4987092;28;20387;-89
2022/12/22 08:38:31;;;;;;;;;;;10.50;92.60;;;;;;5000476;28;19971;-90
2022/12/22 08:41:03;;;;;;;;;;;10.50;92.40;;;;;;5013128;28;19949;-89
2022/12/22 08:43:30;;;;;;;;;;;10.50;92.40;;;;;;4985222;28;19914;-85
2022/12/22 08:45:58;;;;;;;;;;;10.50;92.50;;;;;;4972942;28;19915;-85
2022/12/22 08:48:33;;;;;;;;;;;10.60;92.20;;;;;;4989099;28;19926;-85
2022/12/22 08:50:59;;;;;;;;;;;10.50;92.10;;;;;;4989643;28;20011;-86
2022/12/22 08:53:24;;;;;;;;;;;10.40;92.30;;;;;;4990717;28;19968;-84
2022/12/22 08:55:53;;;;;;;;;;;10.50;92.40;;;;;;4990793;28;19909;-84
2022/12/22 08:58:33;;;;;;;;;;;10.50;92.30;;;;;;5006239;28;19923;-91
2022/12/22 09:00:59;;;;;;;;;;;10.50;92.40;;;;;;5002359;28;19921;-86
2022/12/22 09:03:38;;;;;;;;;;;10.50;92.30;;;;;;4974145;28;20384;-89
2022/12/22 09:06:11;;;;;;;;;;;10.50;92.20;;;;;;4989816;28;19922;-89
2022/12/22 09:08:46;;;;;;;;;;;10.60;92.20;;;;;;4981774;28;20032;-87
2022/12/22 09:11:40;;;;;;;;;;;10.60;91.90;;;;;;4976910;28;20269;-88
2022/12/22 09:16:58;;;;;;;;;;;10.50;92.10;;;;;;4972482;28;19921;-85
2022/12/22 09:19:24;;;;;;;;;;;10.60;92.10;;;;;;4967538;28;20704;-85
2022/12/22 09:21:49;;;;;;;;;;;10.50;92.20;;;;;;4989348;28;19925;-85
2022/12/22 09:24:15;;;;;;;;;;;10.50;92.10;;;;;;4990593;28;19914;-85
2022/12/22 09:26:41;;;;;;;;;;;10.60;92.10;;;;;;4986249;28;19969;-85
2022/12/22 09:29:07;;;;;;;;;;;10.60;92.10;;;;;;4984465;28;19918;-85
2022/12/22 09:31:32;;;;;;;;;;;10.60;91.80;;;;;;4990705;28;19922;-84
2022/12/22 09:33:58;;;;;;;;;;;10.60;91.90;;;;;;4990177;28;19914;-84
2022/12/22 09:36:25;;;;;;;;;;;10.60;91.80;;;;;;4979016;28;19960;-81
2022/12/22 09:38:51;;;;;;;;;;;10.60;91.90;;;;;;4991943;28;19922;-83
2022/12/22 09:41:22;;;;;;;;;;;10.60;91.80;;;;;;4985212;28;20403;-82
2022/12/22 09:43:50;;;;;;;;;;;10.60;91.70;;;;;;4972479;28;20363;-84
2022/12/22 09:46:19;;;;;;;;;;;10.60;91.80;;;;;;4993780;28;19927;-86
2022/12/22 09:48:45;;;;;;;;;;;10.70;91.60;;;;;;4983443;28;19922;-84
2022/12/22 09:51:11;;;;;;;;;;;10.70;91.80;;;;;;4970270;28;19925;-84
2022/12/22 09:53:36;;;;;;;;;;;10.80;91.70;;;;;;4970711;28;19966;-87
2022/12/22 09:56:02;;;;;;;;;;;10.80;91.50;;;;;;4972540;28;19957;-83
2022/12/22 09:58:29;;;;;;;;;;;10.80;91.50;;;;;;4982234;28;19933;-86
2022/12/22 10:01:18;;;;;;;;;;;10.80;91.30;;;;;;4967178;28;19962;-87
2022/12/22 10:03:47;;;;;;;;;;;10.80;91.30;;;;;;4973796;28;19992;-87
2022/12/22 10:07:10;;;;;;;;;;;10.90;91.30;;;;;;4989373;28;19929;-93
2022/12/22 10:09:30;;;;;;;;;;;11.00;91.30;;;;;;4967887;28;19926;-85
2022/12/22 10:11:59;;;;;;;;;;;11.00;90.80;;;;;;4963938;28;20380;-87
2022/12/22 10:14:36;;;;;;;;;;;11.00;90.80;;;;;;4964900;28;20299;-86
2022/12/22 10:17:15;;;;;;;;;;;11.00;90.60;;;;;;4962321;28;19973;-84
2022/12/22 10:19:41;;;;;;;;;;;10.90;90.60;;;;;;4961819;28;20289;-86
2022/12/22 10:22:25;;;;;;;;;;;10.80;90.80;;;;;;4966988;28;19920;-85
2022/12/22 10:24:51;;;;;;;;;;;10.80;91.00;;;;;;4963159;28;19914;-84
2022/12/22 10:27:17;;;;;;;;;;;10.70;90.90;;;;;;4964783;28;19918;-85
2022/12/22 10:29:45;;;;;;;;;;;10.80;90.80;;;;;;4963682;28;19926;-83
2022/12/22 10:32:20;;;;;;;;;;;10.70;90.80;;;;;;4967807;28;22044;-87
2022/12/22 10:35:05;;;;;;;;;;;10.60;90.60;;;;;;4970500;28;19924;-87
2022/12/22 10:37:35;;;;;;;;;;;10.60;90.70;;;;;;4965745;28;19969;-86
2022/12/22 10:40:18;;;;;;;;;;;10.60;90.50;;;;;;4988528;28;19949;-88
2022/12/22 10:42:56;;;;;;;;;;;10.50;90.60;;;;;;4985066;28;20012;-87
2022/12/22 10:45:58;;;;;;;;;;;10.60;90.70;;;;;;4986561;28;19920;-88
2022/12/22 10:48:32;;;;;;;;;;;10.60;90.60;;;;;;4963590;28;20323;-85
2022/12/22 10:51:01;;;;;;;;;;;10.50;90.50;;;;;;4968784;28;19921;-85
2022/12/22 10:53:38;;;;;;;;;;;10.40;90.50;;;;;;4969799;28;19918;-78
2022/12/22 10:56:04;;;;;;;;;;;10.50;90.70;;;;;;4976185;28;19921;-84
2022/12/22 10:58:29;;;;;;;;;;;10.40;90.70;;;;;;4999622;28;19914;-83
2022/12/22 11:01:00;;;;;;;;;;;10.40;90.60;;;;;;4986965;28;19914;-82
2022/12/22 11:03:30;;;;;;;;;;;10.40;90.70;;;;;;4987296;28;19902;-83
2022/12/22 11:05:56;;;;;;;;;;;10.40;90.80;;;;;;5001199;28;19957;-83
2022/12/22 11:08:23;;;;;;;;;;;10.30;90.70;;;;;;4977074;28;19922;-83
2022/12/22 11:10:48;;;;;;;;;;;10.30;90.70;;;;;;4999297;28;19960;-82
2022/12/22 11:13:19;;;;;;;;;;;10.30;90.60;;;;;;4972431;28;19960;-83
2022/12/22 11:16:01;;;;;;;;;;;10.30;90.70;;;;;;4981649;28;20009;-84
2022/12/22 11:18:45;;;;;;;;;;;10.30;90.80;;;;;;4978570;28;19918;-84
2022/12/22 11:21:37;;;;;;;;;;;10.20;90.50;;;;;;4974322;28;19914;-83
2022/12/22 11:24:15;;;;;;;;;;;10.20;90.80;;;;;;4986792;28;19918;-83
2022/12/22 11:27:00;;;;;;;;;;;10.50;90.50;;;;;;4999031;28;20377;-84
2022/12/22 11:29:25;;;;;;;;;;;10.50;89.90;;;;;;4975842;28;20351;-82
2022/12/22 11:31:55;;;;;;;;;;;10.50;90.00;;;;;;4967006;28;19922;-82
2022/12/22 11:34:27;;;;;;;;;;;10.40;89.90;;;;;;4976719;28;19915;-83
2022/12/22 11:36:55;;;;;;;;;;;10.30;89.90;;;;;;4966966;28;19921;-83
2022/12/22 11:39:32;;;;;;;;;;;10.20;90.00;;;;;;4983338;28;19914;-84
2022/12/22 11:42:10;;;;;;;;;;;10.20;90.00;;;;;;4974917;28;19918;-83
2022/12/22 11:44:44;;;;;;;;;;;10.20;90.40;;;;;;4971467;28;19925;-84
2022/12/22 11:47:09;;;;;;;;;;;10.10;90.30;;;;;;4968486;28;19949;-78
2022/12/22 11:49:47;;;;;;;;;;;10.20;90.00;;;;;;4985999;28;19918;-79
2022/12/22 11:52:22;;;;;;;;;;;10.20;89.20;;;;;;4993017;28;19918;-83
2022/12/22 11:54:58;;;;;;;;;;;10.20;89.00;;;;;;5001029;28;20434;-83
2022/12/22 11:57:42;;;;;;;;;;;10.30;88.50;;;;;;4974835;28;19944;-83
2022/12/22 12:00:10;;;;;;;;;;;10.30;88.50;;;;;;4991262;28;19921;-83
2022/12/22 12:02:54;;;;;;;;;;;10.30;88.00;;;;;;4975385;28;19914;-82
2022/12/22 12:05:39;;;;;;;;;;;10.30;87.90;;;;;;4990675;28;19914;-84
2022/12/22 12:08:28;;;;;;;;;;;10.30;88.20;;;;;;4984345;28;19989;-82
2022/12/22 12:11:01;;;;;;;;;;;10.30;88.50;;;;;;5007463;28;19914;-83
2022/12/22 12:13:26;;;;;;;;;;;10.30;88.10;;;;;;4989126;28;19935;-83
2022/12/22 12:15:54;;;;;;;;;;;10.30;88.20;;;;;;4998111;28;19978;-83
2022/12/22 12:18:38;;;;;;;;;;;10.30;88.30;;;;;;4986326;28;20504;-83
2022/12/22 12:21:06;;;;;;;;;;;10.40;88.30;;;;;;4976771;28;19929;-82
2022/12/22 12:23:41;;;;;;;;;;;10.40;88.20;;;;;;4972381;28;19969;-82
2022/12/22 12:26:24;;;;;;;;;;;10.50;87.40;;;;;;4975051;28;19914;-83
2022/12/22 12:29:12;;;;;;;;;;;10.30;87.40;;;;;;5000341;28;19926;-83
2022/12/22 12:31:40;;;;;;;;;;;10.40;87.70;;;;;;4997376;28;19925;-83
2022/12/22 12:34:09;;;;;;;;;;;10.50;87.50;;;;;;4981855;28;19914;-83
2022/12/22 12:36:39;;;;;;;;;;;10.50;87.90;;;;;;4977097;28;19915;-84
2022/12/22 12:39:24;;;;;;;;;;;10.60;87.70;;;;;;4976742;28;19968;-83
2022/12/22 12:42:00;;;;;;;;;;;10.60;86.20;;;;;;4979885;28;19922;-83
2022/12/22 12:44:27;;;;;;;;;;;10.50;85.70;;;;;;4980066;28;19922;-84
2022/12/22 12:46:54;;;;;;;;;;;10.50;85.40;;;;;;4979925;28;19914;-82
2022/12/22 12:49:35;;;;;;;;;;;10.40;85.40;;;;;;4999924;28;19972;-83
2022/12/22 12:52:07;;;;;;;;;;;10.20;85.90;;;;;;4979321;28;20027;-82
2022/12/22 12:54:37;;;;;;;;;;;10.10;86.20;;;;;;4991205;28;20042;-83
2022/12/22 12:57:05;;;;;;;;;;;10.20;86.60;;;;;;4991523;28;19910;-82
2022/12/22 12:59:40;;;;;;;;;;;10.10;86.40;;;;;;4975447;28;19914;-83
2022/12/22 13:02:25;;;;;;;;;;;10.10;86.60;;;;;;4970938;28;19922;-83
2022/12/22 13:05:06;;;;;;;;;;;10.10;86.50;;;;;;4986888;28;19921;-83
2022/12/22 13:07:50;;;;;;;;;;;10.00;86.90;;;;;;4975194;28;20005;-83
2022/12/22 13:10:17;;;;;;;;;;;10.00;87.00;;;;;;4974939;28;19937;-83
2022/12/22 13:12:50;;;;;;;;;;;10.00;86.70;;;;;;4988816;28;19918;-83
2022/12/22 13:15:32;;;;;;;;;;;10.10;85.30;;;;;;4975684;28;20383;-83
2022/12/22 13:17:59;;;;;;;;;;;10.00;85.20;;;;;;4988660;28;19914;-83
2022/12/22 13:20:26;;;;;;;;;;;10.00;85.60;;;;;;4976535;28;19910;-84
2022/12/22 13:22:53;;;;;;;;;;;10.00;85.50;;;;;;4975825;28;19913;-84
2022/12/22 13:25:18;;;;;;;;;;;9.90;85.30;;;;;;4988358;28;19954;-80
2022/12/22 13:27:44;;;;;;;;;;;9.80;85.70;;;;;;4981162;28;19921;-81
2022/12/22 13:30:18;;;;;;;;;;;9.80;86.00;;;;;;4981974;28;19914;-84
2022/12/22 13:32:48;;;;;;;;;;;9.80;86.20;;;;;;4969685;28;19921;-84
2022/12/22 13:35:19;;;;;;;;;;;9.90;86.10;;;;;;4977753;28;19922;-83
2022/12/22 13:37:46;;;;;;;;;;;9.80;86.20;;;;;;4978221;28;19920;-86
2022/12/22 13:40:19;;;;;;;;;;;9.90;86.30;;;;;;4850960;23;20115;-82
2022/12/22 13:42:50;;;;;;;;;;;10.00;86.30;;;;;;5038861;28;19914;-83
2022/12/22 13:45:21;;;;;;;;;;;10.00;86.30;;;;;;5043351;28;19913;-82
2022/12/22 13:47:47;;;;;;;;;;;10.00;86.60;;;;;;5036897;28;19940;-82
2022/12/22 13:50:17;;;;;;;;;;;10.10;86.00;;;;;;5042283;28;19913;-82
2022/12/22 13:52:43;;;;;;;;;;;10.00;85.80;;;;;;5037730;28;19913;-84
2022/12/22 13:55:13;;;;;;;;;;;10.10;86.20;;;;;;5031442;28;20454;-83
2022/12/22 13:57:39;;;;;;;;;;;10.10;86.20;;;;;;5027741;28;19914;-83
2022/12/22 14:00:16;;;;;;;;;;;10.10;86.10;;;;;;5029485;28;19997;-83
2022/12/22 14:02:43;;;;;;;;;;;10.10;86.30;;;;;;5031670;28;19961;-82
2022/12/22 14:05:10;;;;;;;;;;;10.10;85.80;;;;;;5029558;28;20355;-81
2022/12/22 14:07:36;;;;;;;;;;;10.10;85.60;;;;;;5025394;28;20014;-82
2022/12/22 14:10:01;;;;;;;;;;;10.10;85.70;;;;;;5027377;28;19917;-83
2022/12/22 14:12:28;;;;;;;;;;;10.10;85.80;;;;;;5032129;28;19924;-83
2022/12/22 14:14:59;;;;;;;;;;;10.10;85.70;;;;;;5019828;28;19920;-83
2022/12/22 14:17:30;;;;;;;;;;;10.20;85.80;;;;;;5025950;28;19921;-83
2022/12/22 14:19:57;;;;;;;;;;;10.20;86.00;;;;;;5032409;28;20363;-82
2022/12/22 14:22:26;;;;;;;;;;;10.10;86.00;;;;;;5036358;28;19913;-83
2022/12/22 14:24:54;;;;;;;;;;;10.10;85.90;;;;;;5040528;28;19923;-82
2022/12/22 14:27:35;;;;;;;;;;;10.10;86.20;;;;;;5029827;28;20323;-82
2022/12/22 14:30:02;;;;;;;;;;;10.10;86.00;;;;;;5032986;28;19924;-82
2022/12/22 14:32:36;;;;;;;;;;;10.00;85.80;;;;;;5033002;28;19913;-83
2022/12/22 14:35:01;;;;;;;;;;;10.00;85.30;;;;;;5043666;28;20007;-82
2022/12/22 14:37:27;;;;;;;;;;;9.90;85.90;;;;;;5030118;28;19967;-81
2022/12/22 14:39:55;;;;;;;;;;;9.90;85.90;;;;;;5032122;28;19924;-82
2022/12/22 14:42:21;;;;;;;;;;;9.90;85.40;;;;;;5032435;28;20000;-80
2022/12/22 14:44:47;;;;;;;;;;;9.80;85.70;;;;;;5029469;28;19953;-81
2022/12/22 14:47:14;;;;;;;;;;;9.90;86.00;;;;;;5033981;28;19916;-80
2022/12/22 14:49:45;;;;;;;;;;;9.80;86.00;;;;;;5032634;28;20341;-80
2022/12/22 14:52:31;;;;;;;;;;;9.80;86.10;;;;;;5031477;28;20390;-80
2022/12/22 14:54:58;;;;;;;;;;;9.80;85.70;;;;;;5030987;28;19921;-81
2022/12/22 14:57:34;;;;;;;;;;;9.80;86.20;;;;;;5032858;28;19959;-80
2022/12/22 15:00:05;;;;;;;;;;;9.90;86.20;;;;;;5032318;28;19921;-79
2022/12/22 15:02:33;;;;;;;;;;;9.80;86.10;;;;;;5030861;28;20395;-80
2022/12/22 15:05:12;;;;;;;;;;;9.90;85.60;;;;;;5030326;28;19956;-80
2022/12/22 15:07:48;;;;;;;;;;;9.90;85.80;;;;;;5031633;28;19955;-80
2022/12/22 15:10:13;;;;;;;;;;;9.90;85.70;;;;;;5034192;28;19913;-80
2022/12/22 15:12:39;;;;;;;;;;;9.90;85.60;;;;;;5039558;28;19935;-80
2022/12/22 15:15:11;;;;;;;;;;;9.90;85.40;;;;;;5047698;28;19913;-80
2022/12/22 15:17:37;;;;;;;;;;;9.90;85.10;;;;;;5034698;28;20268;-80
2022/12/22 15:20:03;;;;;;;;;;;10.00;84.50;;;;;;5035048;28;19924;-80
2022/12/22 15:22:29;;;;;;;;;;;9.90;84.90;;;;;;5037087;28;19924;-80
2022/12/22 15:24:55;;;;;;;;;;;9.90;85.10;;;;;;5038258;28;19913;-79
2022/12/22 15:27:20;;;;;;;;;;;9.90;84.70;;;;;;5028956;28;19909;-80
2022/12/22 15:29:46;;;;;;;;;;;9.80;84.80;;;;;;5037298;28;19924;-80
2022/12/22 15:32:12;;;;;;;;;;;9.70;85.30;;;;;;5034635;28;20008;-79
2022/12/22 15:34:37;;;;;;;;;;;9.70;85.20;;;;;;5036667;28;20383;-79
2022/12/22 15:37:03;;;;;;;;;;;9.60;85.30;;;;;;5039772;28;19916;-80
2022/12/22 15:39:28;;;;;;;;;;;9.60;85.70;;;;;;5028395;28;19914;-80
2022/12/22 15:41:54;;;;;;;;;;;9.50;86.00;;;;;;5040655;28;19921;-79
2022/12/22 15:44:20;;;;;;;;;;;9.40;86.00;;;;;;5037327;28;19912;-80
2022/12/22 15:46:50;;;;;;;;;;;9.40;86.10;;;;;;5037128;28;19913;-80
2022/12/22 15:49:18;;;;;;;;;;;9.50;86.30;;;;;;5035799;28;19971;-80
2022/12/22 15:51:47;;;;;;;;;;;9.40;86.20;;;;;;5035939;28;19921;-79
2022/12/22 15:54:14;;;;;;;;;;;9.30;86.70;;;;;;5035845;28;20379;-80
2022/12/22 15:56:40;;;;;;;;;;;9.40;86.70;;;;;;5035353;28;19920;-80
2022/12/22 15:59:08;;;;;;;;;;;9.40;86.80;;;;;;5038308;28;19909;-79
2022/12/22 16:01:33;;;;;;;;;;;9.30;86.80;;;;;;5058256;28;19916;-80
2022/12/22 16:03:59;;;;;;;;;;;9.30;86.70;;;;;;5057745;28;19913;-80
2022/12/22 16:06:24;;;;;;;;;;;9.40;86.90;;;;;;5030302;28;19921;-80
2022/12/22 16:08:51;;;;;;;;;;;9.30;86.60;;;;;;5033742;28;19921;-79
2022/12/22 16:11:17;;;;;;;;;;;9.30;86.90;;;;;;5025720;28;19920;-80
2022/12/22 16:13:43;;;;;;;;;;;9.30;87.00;;;;;;5029927;28;19913;-78
2022/12/22 16:16:08;;;;;;;;;;;9.20;87.10;;;;;;5034434;28;20283;-79
2022/12/22 16:18:34;;;;;;;;;;;9.20;87.30;;;;;;5032973;28;19921;-79
2022/12/22 16:21:06;;;;;;;;;;;9.20;87.40;;;;;;5033219;28;19913;-79
2022/12/22 16:23:31;;;;;;;;;;;9.10;87.50;;;;;;5018408;28;19917;-79
2022/12/22 16:25:57;;;;;;;;;;;9.20;87.70;;;;;;5033272;28;19917;-80
2022/12/22 16:28:23;;;;;;;;;;;9.20;87.70;;;;;;5033483;28;19918;-79
2022/12/22 16:30:50;;;;;;;;;;;9.30;87.70;;;;;;5033352;28;19913;-78
2022/12/22 16:33:15;;;;;;;;;;;9.30;87.50;;;;;;5041713;28;19913;-78
2022/12/22 16:35:40;;;;;;;;;;;9.30;87.80;;;;;;5032670;28;19917;-80
2022/12/22 16:38:06;;;;;;;;;;;9.40;87.80;;;;;;5034828;28;19917;-79
2022/12/22 16:40:38;;;;;;;;;;;9.50;87.90;;;;;;5034912;28;19964;-80
2022/12/22 16:43:09;;;;;;;;;;;9.50;88.00;;;;;;5035592;28;19917;-80
2022/12/22 16:45:36;;;;;;;;;;;9.50;87.80;;;;;;5033939;28;19913;-79
2022/12/22 16:48:04;;;;;;;;;;;9.40;88.00;;;;;;5040887;28;19913;-80
2022/12/22 16:50:36;;;;;;;;;;;9.40;88.20;;;;;;5042066;28;19923;-80
2022/12/22 16:53:03;;;;;;;;;;;9.40;88.40;;;;;;5052064;28;19920;-80
2022/12/22 16:55:29;;;;;;;;;;;9.30;88.60;;;;;;5061378;28;19961;-80
2022/12/22 16:57:55;;;;;;;;;;;9.40;88.70;;;;;;5036708;28;19917;-80
2022/12/22 17:00:22;;;;;;;;;;;9.50;88.70;;;;;;5032834;28;20367;-80
2022/12/22 17:03:00;;;;;;;;;;;9.50;88.50;;;;;;5029965;28;19920;-80
2022/12/22 17:05:28;;;;;;;;;;;9.50;88.70;;;;;;5039158;28;20374;-80
2022/12/22 17:07:57;;;;;;;;;;;9.40;89.10;;;;;;5038623;28;19913;-80
2022/12/22 17:10:22;;;;;;;;;;;9.50;89.20;;;;;;5037654;28;19909;-80
2022/12/22 17:12:48;;;;;;;;;;;9.30;89.40;;;;;;5038052;28;19955;-80
2022/12/22 17:15:18;;;;;;;;;;;9.20;89.80;;;;;;5031696;28;20462;-80
2022/12/22 17:17:44;;;;;;;;;;;9.20;90.10;;;;;;5033381;28;20366;-80
2022/12/22 17:20:17;;;;;;;;;;;9.10;90.00;;;;;;5032924;28;19925;-80
2022/12/22 17:22:44;;;;;;;;;;;9.10;90.40;;;;;;5043781;28;19920;-81
2022/12/22 17:25:16;;;;;;;;;;;9.20;90.40;;;;;;5046695;28;19932;-80
2022/12/22 17:27:41;;;;;;;;;;;9.20;90.40;;;;;;5036734;28;19925;-81
2022/12/22 17:30:15;;;;;;;;;;;9.30;90.50;;;;;;5035186;28;19921;-80
2022/12/22 17:32:40;;;;;;;;;;;9.20;90.50;;;;;;5028804;28;19936;-80
2022/12/22 17:35:06;;;;;;;;;;;9.20;90.60;;;;;;5038281;28;20394;-80
2022/12/22 17:37:32;;;;;;;;;;;9.10;90.70;;;;;;5033701;28;20052;-80
2022/12/22 17:40:00;;;;;;;;;;;9.10;90.80;;;;;;5034941;28;20032;-80
2022/12/22 17:42:25;;;;;;;;;;;9.20;91.10;;;;;;5032921;28;19964;-80
2022/12/22 17:44:51;;;;;;;;;;;9.20;90.80;;;;;;5036905;28;19920;-80
2022/12/22 17:47:19;;;;;;;;;;;9.20;91.00;;;;;;5045158;28;20322;-80
2022/12/22 17:49:45;;;;;;;;;;;9.20;91.00;;;;;;5044962;28;19917;-80
2022/12/22 17:52:18;;;;;;;;;;;9.30;91.10;;;;;;5036282;28;19913;-80
2022/12/22 17:54:44;;;;;;;;;;;9.30;91.00;;;;;;5035167;28;19924;-80
2022/12/22 17:57:14;;;;;;;;;;;9.30;91.00;;;;;;5038013;28;19920;-80
2022/12/22 17:59:39;;;;;;;;;;;9.20;91.00;;;;;;5033172;28;19991;-80
2022/12/22 18:02:05;;;;;;;;;;;9.10;91.20;;;;;;5033020;28;20378;-80
2022/12/22 18:04:30;;;;;;;;;;;9.30;91.40;;;;;;5034777;28;19913;-80
2022/12/22 18:06:57;;;;;;;;;;;9.30;91.20;;;;;;5035386;28;19917;-80
2022/12/22 18:09:24;;;;;;;;;;;9.40;91.10;;;;;;5035309;28;19917;-80
2022/12/22 18:11:50;;;;;;;;;;;9.30;91.10;;;;;;5036875;28;19913;-80
2022/12/22 18:14:17;;;;;;;;;;;9.30;91.50;;;;;;5039753;28;19959;-80
2022/12/22 18:16:42;;;;;;;;;;;9.30;91.60;;;;;;5040213;28;19932;-80
2022/12/22 18:19:08;;;;;;;;;;;9.40;91.40;;;;;;5033229;28;20012;-80
2022/12/22 18:21:34;;;;;;;;;;;9.40;91.40;;;;;;5034376;28;19914;-80
2022/12/22 18:24:01;;;;;;;;;;;9.40;91.50;;;;;;5036914;28;19932;-80
2022/12/22 18:26:27;;;;;;;;;;;9.30;91.50;;;;;;5035613;28;19923;-80
2022/12/22 18:28:53;;;;;;;;;;;9.30;91.50;;;;;;5036026;28;19917;-80
2022/12/22 18:31:19;;;;;;;;;;;9.40;91.70;;;;;;5026436;28;19928;-81
2022/12/22 18:33:45;;;;;;;;;;;9.50;91.60;;;;;;5045691;28;19920;-83
2022/12/22 18:36:15;;;;;;;;;;;9.50;91.70;;;;;;5030148;28;19913;-80
2022/12/22 18:38:40;;;;;;;;;;;9.60;91.70;;;;;;5030438;28;20321;-84
2022/12/22 18:41:05;;;;;;;;;;;9.50;91.30;;;;;;5029281;28;19921;-81
2022/12/22 18:43:31;;;;;;;;;;;9.50;91.70;;;;;;5037895;28;19913;-82
2022/12/22 18:45:56;;;;;;;;;;;9.50;91.50;;;;;;5028945;28;19917;-81
2022/12/22 18:48:22;;;;;;;;;;;9.50;91.60;;;;;;5036975;28;19925;-83
2022/12/22 18:50:47;;;;;;;;;;;9.50;91.70;;;;;;5027028;28;20322;-82
2022/12/22 18:53:22;;;;;;;;;;;9.60;91.50;;;;;;5024768;28;19947;-82